ADDS METAR Data INFO
IDs: Format: Raw Decoded Include TAF

Data at: 0941 UTC 25 Jun 2018

KCNC 250935Z AUTO 11008KT 10SM BKN037 BKN120 20/19 A2997 RMK AO2
KCNC 250915Z AUTO 11005KT 10SM SCT036 20/19 A2999 RMK AO2
KCNC 250855Z AUTO 11004KT 10SM CLR 20/19 A2998 RMK AO2
KCNC 250835Z AUTO 12007KT 10SM CLR 20/19 A2998 RMK AO2
KCNC 250815Z AUTO 10008KT 10SM CLR 20/19 A2998 RMK AO2
KCNC 250755Z AUTO 10006KT 10SM CLR 20/19 A2997 RMK AO2
KCNC 250735Z AUTO 08006KT 10SM FEW027 20/19 A2995 RMK AO2
KCNC 250715Z AUTO 07006KT 10SM BKN027 BKN032 BKN110 20/19 A2997 RMK AO2
KCNC 250655Z AUTO 06004KT 10SM FEW027 FEW033 BKN110 20/19 A2998 RMK AO2
KCNC 250635Z AUTO 09006KT 10SM FEW035 BKN110 20/19 A2998 RMK AO2
KCNC 250615Z AUTO 09007KT 10SM FEW035 SCT110 20/19 A2998 RMK AO2
KCNC 250555Z AUTO 09008KT 10SM SCT120 19/19 A2997 RMK AO2
KCNC 250535Z AUTO 07007KT 10SM BKN120 19/19 A2998 RMK AO2
KCNC 250515Z AUTO 08009KT 10SM OVC120 19/19 A2998 RMK AO2
KCNC 250455Z AUTO 10007KT 10SM OVC120 19/19 A2998 RMK AO2
KCNC 250435Z AUTO 12006KT 10SM OVC120 19/19 A2997 RMK AO2
KCNC 250415Z AUTO 14004KT 10SM OVC120 19/19 A2998 RMK AO2
KCNC 250355Z AUTO 14006KT 10SM OVC120 19/19 A2998 RMK AO2
KCNC 250335Z AUTO 10004KT 10SM FEW031 FEW065 BKN120 19/19 A2998 RMK AO2
KCNC 250315Z AUTO 08006KT 10SM FEW065 SCT080 BKN120 19/19 A2997 RMK AO2
KCNC 250255Z AUTO 04008KT 10SM SCT120 19/19 A2998 RMK AO2
KCNC 250235Z AUTO 06009KT 10SM FEW005 BKN080 BKN090 19/19 A2998 RMK AO2
KCNC 250215Z AUTO 03010KT 10SM SCT080 BKN090 OVC120 20/19 A2997 RMK AO2
KCNC 250155Z AUTO 34005KT 10SM OVC120 20/19 A2996 RMK AO2 P0002
KCNC 250135Z AUTO 27004KT 10SM OVC120 20/19 A2996 RMK AO2
KCNC 250115Z AUTO 23004KT 10SM -RA FEW038 FEW045 SCT120 20/19 A2996 RMK AO2
KCNC 250055Z AUTO 22005KT 3SM RA FEW037 FEW045 FEW050 20/19 A2997 RMK AO2 P0012
KCNC 250035Z AUTO 17008KT 7SM -RA FEW038 FEW046 20/19 A2999 RMK AO2
KCNC 250015Z AUTO 16008KT 5SM -RA FEW038 FEW044 20/19 A2998 RMK AO2
KCNC 242355Z AUTO 23006KT 8SM -RA CLR 20/19 A2996 RMK AO2 P0004
KCNC 242335Z AUTO 20005KT 7SM -RA CLR 20/19 A2996 RMK AO2
KCNC 242315Z AUTO 24005KT 5SM -RA FEW046 FEW055 SCT090 20/19 A2996 RMK AO2
KCNC 242255Z AUTO VRB06G15KT 7SM -RA SCT037 BKN048 BKN075 20/19 A2995 RMK AO2 P0008
KCNC 242235Z AUTO 03008KT 4SM RA FEW032 BKN039 OVC120 19/19 A2994 RMK AO2
KCNC 242215Z AUTO 02010G19KT 3SM +RA SCT036 BKN042 BKN049 20/19 A2994 RMK AO2
KCNC 242155Z AUTO 36012KT 7SM -RA FEW036 FEW044 SCT055 20/19 A2996 RMK AO2 P0001
KCNC 242135Z AUTO 05010KT 9SM FEW036 SCT044 SCT055 21/20 A2994 RMK AO2
KCNC 242115Z AUTO 20012G22KT 7SM FEW030 SCT036 BKN043 21/19 A2991 RMK AO2
KCNC 242055Z AUTO 18015KT 2SM RA SCT030 BKN036 BKN085 23/21 A2991 RMK AO2 P0009
KCNC 242035Z AUTO 19008KT 8SM BKN033 BKN039 BKN085 24/21 A2990 RMK AO2
KCNC 242015Z AUTO 15013KT 9SM BKN033 28/22 A2987 RMK AO2
KCNC 241955Z AUTO 11009G16KT 10SM FEW032 28/21 A2989 RMK AO2
KCNC 241935Z AUTO 11014KT 10SM FEW031 FEW048 29/22 A2989 RMK AO2
KCNC 241915Z AUTO 15008G16KT 10SM BKN031 29/22 A2990 RMK AO2
KCNC 241855Z AUTO 11008G14KT 10SM FEW031 29/22 A2991 RMK AO2
KCNC 241835Z AUTO 12011KT 10SM CLR 29/22 A2991 RMK AO2
KCNC 241815Z AUTO 7/95833308KT 10SM CLR 28/22 A2991 RMK AO2
KCNC 241755Z AUTO 12007G12KT 10SM CLR 28/22 A2991 RMK AO2
KCNC 241735Z AUTO 13009KT 10SM CLR 28/21 A2991 RMK AO2
KCNC 241715Z AUTO 13006KT 10SM CLR 28/21 A2991 RMK AO2
KCNC 241655Z AUTO 13007KT 10SM CLR 27/21 A2991 RMK AO2
KCNC 241635Z AUTO 14007KT 100V160 10SM CLR 27/21 A2991 RMK AO2
KCNC 241615Z AUTO 15006KT 10SM CLR 26/20 A2991 RMK AO2
KCNC 241555Z AUTO 17006KT 10SM CLR 26/21 A2991 RMK AO2
KCNC 241535Z AUTO 12007KT 10SM CLR 26/20 A2990 RMK AO2
KCNC 241515Z AUTO 13008KT 10SM CLR 26/20 A2989 RMK AO2
KCNC 241455Z AUTO 14008KT 10SM CLR 25/20 A2987 RMK AO2
KCNC 241435Z AUTO 14010KT 10SM CLR 25/20 A2988 RMK AO2
KCNC 241415Z AUTO 13006KT 10SM CLR 24/20 A2987 RMK AO2
KCNC 241355Z AUTO 13008KT 10SM FEW110 22/19 A2988 RMK AO2
KCNC 241335Z AUTO 13008KT 10SM FEW110 22/19 A2989 RMK AO2
KCNC 241315Z AUTO 14007KT 10SM CLR 21/19 A2988 RMK AO2
KCNC 241255Z AUTO 15006KT 10SM FEW060 21/18 A2988 RMK AO2
KCNC 241235Z AUTO 13007KT 10SM SCT060 20/18 A2988 RMK AO2
KCNC 241215Z AUTO 14007KT 9SM CLR 19/18 A2988 RMK AO2
KCNC 241155Z AUTO 15006KT 10SM CLR 18/17 A2987 RMK AO2
KCNC 241135Z AUTO 14007KT 10SM FEW065 FEW080 18/17 A2985 RMK AO2
KCNC 241115Z AUTO 10SM BKN065 BKN080 18/17 A2985 RMK AO2
KCNC 241055Z AUTO 16004KT 9SM CLR 17/17 A2985 RMK AO2
KCNC 241035Z AUTO 14007KT 9SM CLR 17/17 A2984 RMK AO2
KCNC 241015Z AUTO 14006KT 10SM CLR 17/17 A2983 RMK AO2
KCNC 240955Z AUTO 15005KT 10SM CLR 17/17 A2983 RMK AO2
KCNC 240935Z AUTO 14006KT 10SM CLR 17/17 A2982 RMK AO2
KCNC 240915Z AUTO 15005KT 10SM CLR 17/17 A2983 RMK AO2
KCNC 240855Z AUTO 13004KT 10SM CLR 17/17 A2984 RMK AO2
KCNC 240835Z AUTO 13005KT 10SM FEW050 17/17 A2984 RMK AO2
KCNC 240815Z AUTO 13004KT 10SM SCT049 18/17 A2984 RMK AO2
KCNC 240755Z AUTO 14004KT 10SM SCT047 18/17 A2984 RMK AO2
KCNC 240735Z AUTO 12004KT 10SM OVC047 18/17 A2983 RMK AO2
KCNC 240715Z AUTO 15004KT 10SM OVC046 18/17 A2983 RMK AO2
KCNC 240655Z AUTO 14003KT 10SM BKN047 BKN055 19/17 A2983 RMK AO2
KCNC 240635Z AUTO 17004KT 10SM SCT046 BKN055 18/17 A2983 RMK AO2
KCNC 240615Z AUTO 17004KT 10SM SCT043 SCT050 18/17 A2983 RMK AO2
KCNC 240555Z AUTO 16004KT 10SM BKN044 BKN050 18/17 A2983 RMK AO2
KCNC 240535Z AUTO 14005KT 10SM CLR 18/17 A2984 RMK AO2
KCNC 240515Z AUTO 13005KT 10SM FEW045 SCT055 18/17 A2983 RMK AO2
KCNC 240455Z AUTO 00000KT 10SM SCT044 BKN055 18/17 A2984 RMK AO2
KCNC 240435Z AUTO 16003KT 10SM FEW048 19/17 A2984 RMK AO2
KCNC 240415Z AUTO 00000KT 10SM CLR 19/17 A2984 RMK AO2
KCNC 240355Z AUTO 16004KT 10SM CLR 19/17 A2984 RMK AO2
KCNC 240335Z AUTO 14003KT 10SM CLR 19/17 A2984 RMK AO2
KCNC 240315Z AUTO 15005KT 10SM CLR 19/17 A2984 RMK AO2
KCNC 240255Z AUTO 15003KT 10SM CLR 20/17 A2983 RMK AO2
KCNC 240235Z AUTO 13003KT 10SM CLR 20/18 A2982 RMK AO2
KCNC 240215Z AUTO 15004KT 10SM CLR 20/18 A2981 RMK AO2
KCNC 240155Z AUTO 00000KT 9SM CLR 21/18 A2981 RMK AO2
KCNC 240135Z AUTO 19004KT 10SM CLR 22/18 A2981 RMK AO2
KCNC 240115Z AUTO 18004KT 10SM CLR 23/18 A2980 RMK AO2
KCNC 240055Z AUTO 00000KT 10SM CLR 23/18 A2980 RMK AO2
KCNC 240035Z AUTO 00000KT 10SM CLR 24/17 A2980 RMK AO2
KCNC 240015Z AUTO 22004KT 10SM CLR 24/17 A2980 RMK AO2
KCNC 232355Z AUTO 22004KT 10SM CLR 24/17 A2980 RMK AO2
KCNC 232335Z AUTO VRB03KT 10SM CLR 24/17 A2979 RMK AO2
KCNC 232315Z AUTO 21003KT 10SM CLR 24/17 A2979 RMK AO2
KCNC 232255Z AUTO 21004KT 10SM CLR 24/17 A2979 RMK AO2
KCNC 232235Z AUTO 26003KT 10SM CLR 24/17 A2980 RMK AO2
KCNC 232215Z AUTO 00000KT 10SM CLR 24/17 A2980 RMK AO2
KCNC 232155Z AUTO 23003KT 10SM CLR 24/17 A2980 RMK AO2